Time;durP1;ratioP1;P1;durP2;ratioP2;P2;SDS_P1;SDS_P2;PMS_P1;PMS_P2;Temp;Humidity;BMP_temperature;BMP_pressure;BME280_temperature;BME280_humidity;BME280_pressure;Samples;Min_cycle;Max_cycle;Signal;HPM_P1;HPM_P2
2021/09/11 00:01:12;;;;;;;0.00;0.00;;;;;;;;;;10514412;28;20129;-66
2021/09/11 00:06:17;;;;;;;0.00;0.00;;;;;;;;;;10500004;28;20063;-65
2021/09/11 00:11:20;;;;;;;0.00;0.00;;;;;;;;;;10512282;28;20072;-65
2021/09/11 00:16:23;;;;;;;0.00;0.00;;;;;;;;;;10510526;28;20054;-66
2021/09/11 00:21:27;;;;;;;0.00;0.00;;;;;;;;;;10513724;28;21090;-66
2021/09/11 00:26:30;;;;;;;0.00;0.00;;;;;;;;;;10512409;28;20047;-66
2021/09/11 00:31:33;;;;;;;0.00;0.00;;;;;;;;;;10514539;28;20071;-65
2021/09/11 00:36:37;;;;;;;0.00;0.00;;;;;;;;;;10512227;28;20140;-65
2021/09/11 00:41:40;;;;;;;0.00;0.00;;;;;;;;;;10525990;28;20151;-66
2021/09/11 00:46:42;;;;;;;0.00;0.00;;;;;;;;;;10510406;28;20094;-65
2021/09/11 00:51:47;;;;;;;0.00;0.00;;;;;;;;;;10511968;28;20060;-65
2021/09/11 00:56:50;;;;;;;0.00;0.00;;;;;;;;;;10500717;28;20413;-65
2021/09/11 01:01:52;;;;;;;0.00;0.00;;;;;;;;;;10493672;28;20055;-65
2021/09/11 01:06:58;;;;;;;0.03;0.00;;;;;;;;;;10493273;28;20179;-65
2021/09/11 01:12:02;;;;;;;0.00;0.00;;;;;;;;;;10512588;28;20063;-66
2021/09/11 01:17:05;;;;;;;0.00;0.00;;;;;;;;;;10499595;28;20832;-66
2021/09/11 01:22:13;;;;;;;0.00;0.00;;;;;;;;;;10511984;28;21186;-66
2021/09/11 01:27:17;;;;;;;0.00;0.00;;;;;;;;;;10511273;28;20040;-66
2021/09/11 01:32:20;;;;;;;0.00;0.00;;;;;;;;;;10513894;28;20032;-66
2021/09/11 01:37:23;;;;;;;0.00;0.00;;;;;;;;;;10500405;28;20062;-66
2021/09/11 01:42:29;;;;;;;0.00;0.00;;;;;;;;;;10500345;28;20059;-66
2021/09/11 01:47:31;;;;;;;0.00;0.00;;;;;;;;;;10517298;28;20481;-65
2021/09/11 01:52:35;;;;;;;0.00;0.00;;;;;;;;;;10499428;28;20051;-65
2021/09/11 01:57:39;;;;;;;0.00;0.00;;;;;;;;;;10518962;28;20532;-66
2021/09/11 02:02:42;;;;;;;0.00;0.00;;;;;;;;;;10517925;28;20525;-66
2021/09/11 02:07:45;;;;;;;0.00;0.00;;;;;;;;;;10518089;28;20737;-65
2021/09/11 02:12:49;;;;;;;0.00;0.00;;;;;;;;;;10517987;28;20066;-66
2021/09/11 02:17:52;;;;;;;0.00;0.00;;;;;;;;;;10517484;28;20040;-66
2021/09/11 02:22:55;;;;;;;0.00;0.00;;;;;;;;;;10515188;28;20794;-66
2021/09/11 02:27:59;;;;;;;0.00;0.00;;;;;;;;;;10514511;28;20051;-65
2021/09/11 02:33:02;;;;;;;0.00;0.00;;;;;;;;;;10499347;28;20044;-65
2021/09/11 02:38:05;;;;;;;0.00;0.00;;;;;;;;;;10516010;28;20040;-65
2021/09/11 02:43:09;;;;;;;0.00;0.00;;;;;;;;;;10514528;28;20398;-65
2021/09/11 02:48:12;;;;;;;0.00;0.00;;;;;;;;;;10514628;28;20050;-65
2021/09/11 02:53:15;;;;;;;0.00;0.00;;;;;;;;;;10495778;28;20036;-65
2021/09/11 02:58:22;;;;;;;0.00;0.00;;;;;;;;;;10497668;28;20062;-65
2021/09/11 03:03:25;;;;;;;0.00;0.00;;;;;;;;;;10531422;28;20484;-66
2021/09/11 03:08:28;;;;;;;0.00;0.00;;;;;;;;;;10508361;28;20095;-66
2021/09/11 03:13:33;;;;;;;0.00;0.00;;;;;;;;;;10512057;28;20074;-66
2021/09/11 03:18:35;;;;;;;0.00;0.00;;;;;;;;;;10514755;28;20044;-66
2021/09/11 03:23:38;;;;;;;0.00;0.00;;;;;;;;;;10512669;28;20040;-66
2021/09/11 03:28:42;;;;;;;0.00;0.00;;;;;;;;;;10511160;28;20040;-66
2021/09/11 03:33:46;;;;;;;0.00;0.00;;;;;;;;;;10512833;28;20548;-66
2021/09/11 03:38:49;;;;;;;0.00;0.00;;;;;;;;;;10511935;28;20102;-66
2021/09/11 03:43:54;;;;;;;0.00;0.00;;;;;;;;;;10511396;28;20405;-66
2021/09/11 03:48:56;;;;;;;0.00;0.00;;;;;;;;;;10513075;28;20032;-66
2021/09/11 03:53:59;;;;;;;0.00;0.00;;;;;;;;;;10512265;28;20040;-66
2021/09/11 03:59:03;;;;;;;0.00;0.00;;;;;;;;;;10511523;28;20048;-66
2021/09/11 04:04:06;;;;;;;0.00;0.00;;;;;;;;;;10511767;28;20054;-66
2021/09/11 04:09:09;;;;;;;0.00;0.00;;;;;;;;;;10513363;28;20048;-66
2021/09/11 04:14:13;;;;;;;0.00;0.00;;;;;;;;;;10512565;28;20056;-66
2021/09/11 04:19:16;;;;;;;0.00;0.00;;;;;;;;;;10498493;28;20066;-66
2021/09/11 04:24:18;;;;;;;0.00;0.00;;;;;;;;;;10513102;28;20120;-66
2021/09/11 04:29:23;;;;;;;0.00;0.00;;;;;;;;;;10509273;28;20044;-66
2021/09/11 04:34:25;;;;;;;0.00;0.00;;;;;;;;;;10508944;28;20040;-66
2021/09/11 04:39:28;;;;;;;0.00;0.00;;;;;;;;;;10497685;28;20060;-66
2021/09/11 04:44:32;;;;;;;0.00;0.00;;;;;;;;;;10510972;28;20048;-66
2021/09/11 04:49:35;;;;;;;0.00;0.00;;;;;;;;;;10511297;28;20043;-67
2021/09/11 04:54:39;;;;;;;0.00;0.00;;;;;;;;;;10510905;28;20065;-65
2021/09/11 04:59:43;;;;;;;0.00;0.00;;;;;;;;;;10509403;28;20860;-65
2021/09/11 05:04:46;;;;;;;0.00;0.00;;;;;;;;;;10508417;28;20058;-64
2021/09/11 05:09:53;;;;;;;0.00;0.00;;;;;;;;;;10511108;28;20036;-64
2021/09/11 05:14:57;;;;;;;0.00;0.00;;;;;;;;;;10501397;28;20052;-65
2021/09/11 05:20:00;;;;;;;0.00;0.00;;;;;;;;;;10520321;28;20869;-64
2021/09/11 05:25:03;;;;;;;0.00;0.00;;;;;;;;;;10520205;28;20067;-64
2021/09/11 05:30:08;;;;;;;0.00;0.00;;;;;;;;;;10517336;28;20398;-64
2021/09/11 05:35:11;;;;;;;0.00;0.00;;;;;;;;;;10515991;28;20064;-64
2021/09/11 05:40:14;;;;;;;0.00;0.00;;;;;;;;;;10519693;28;20052;-63
2021/09/11 05:45:18;;;;;;;0.00;0.00;;;;;;;;;;10503428;28;20062;-63
2021/09/11 05:50:21;;;;;;;0.00;0.00;;;;;;;;;;10517298;28;20138;-67
2021/09/11 05:55:23;;;;;;;0.00;0.00;;;;;;;;;;10517502;28;20047;-72
2021/09/11 06:00:28;;;;;;;0.00;0.00;;;;;;;;;;10518395;28;20040;-65
2021/09/11 06:05:30;;;;;;;0.00;0.00;;;;;;;;;;10533523;28;20044;-67
2021/09/11 06:10:33;;;;;;;0.00;0.00;;;;;;;;;;10515241;28;20199;-68
2021/09/11 06:15:38;;;;;;;0.00;0.00;;;;;;;;;;10517399;28;20052;-64
2021/09/11 06:20:40;;;;;;;0.00;0.00;;;;;;;;;;10517680;28;20036;-66
2021/09/11 06:25:43;;;;;;;0.00;0.00;;;;;;;;;;10531716;28;20054;-64
2021/09/11 06:30:47;;;;;;;0.00;0.00;;;;;;;;;;10514569;28;20516;-67
2021/09/11 06:35:50;;;;;;;0.00;0.00;;;;;;;;;;10517894;28;20066;-64
2021/09/11 06:40:53;;;;;;;0.00;0.00;;;;;;;;;;10514772;28;20048;-63
2021/09/11 06:45:57;;;;;;;0.00;0.00;;;;;;;;;;10511373;28;20036;-63
2021/09/11 06:51:00;;;;;;;0.00;0.00;;;;;;;;;;10514088;28;20044;-65
2021/09/11 06:56:03;;;;;;;0.00;0.00;;;;;;;;;;10513779;28;20042;-63
2021/09/11 07:01:07;;;;;;;0.00;0.00;;;;;;;;;;10514044;28;20040;-63
2021/09/11 07:06:10;;;;;;;0.00;0.00;;;;;;;;;;10516761;28;20047;-62
2021/09/11 07:11:15;;;;;;;0.00;0.00;;;;;;;;;;10510912;28;20185;-63
2021/09/11 07:16:20;;;;;;;0.00;0.00;;;;;;;;;;10512666;28;20119;-63
2021/09/11 07:21:23;;;;;;;0.00;0.00;;;;;;;;;;10528719;28;20135;-63
2021/09/11 07:26:26;;;;;;;0.00;0.00;;;;;;;;;;10513160;28;20044;-63
2021/09/11 07:31:30;;;;;;;0.00;0.00;;;;;;;;;;10512537;28;20044;-63
2021/09/11 07:36:33;;;;;;;0.00;0.00;;;;;;;;;;10510038;28;20044;-63
2021/09/11 07:41:36;;;;;;;0.00;0.00;;;;;;;;;;10511789;28;20536;-63
2021/09/11 07:46:40;;;;;;;0.00;0.00;;;;;;;;;;10511384;28;20098;-63
2021/09/11 07:51:43;;;;;;;0.00;0.00;;;;;;;;;;10509301;28;20044;-63
2021/09/11 07:56:46;;;;;;;0.00;0.00;;;;;;;;;;10511546;28;20052;-63
2021/09/11 08:01:50;;;;;;;0.00;0.00;;;;;;;;;;10526676;28;20463;-62
2021/09/11 08:06:53;;;;;;;0.00;0.00;;;;;;;;;;10510069;28;20051;-62
2021/09/11 08:11:57;;;;;;;0.00;0.00;;;;;;;;;;10510496;28;20056;-63
2021/09/11 08:17:02;;;;;;;0.00;0.00;;;;;;;;;;10491234;28;20048;-63
2021/09/11 08:22:04;;;;;;;0.00;0.00;;;;;;;;;;10510062;28;20040;-64
2021/09/11 08:27:07;;;;;;;0.00;0.00;;;;;;;;;;10511011;28;20399;-64
2021/09/11 08:32:11;;;;;;;0.00;0.00;;;;;;;;;;10510351;28;20036;-63
2021/09/11 08:37:16;;;;;;;0.00;0.00;;;;;;;;;;10512346;28;20504;-64
2021/09/11 08:42:21;;;;;;;0.00;0.00;;;;;;;;;;10494621;28;20048;-65
2021/09/11 08:47:26;;;;;;;0.00;0.00;;;;;;;;;;10507758;28;20123;-64
2021/09/11 08:52:29;;;;;;;0.00;0.00;;;;;;;;;;10528852;28;20047;-64
2021/09/11 08:57:33;;;;;;;0.00;0.00;;;;;;;;;;10518707;28;20078;-64
2021/09/11 09:02:39;;;;;;;0.00;0.00;;;;;;;;;;10519374;28;20399;-64
2021/09/11 09:07:43;;;;;;;0.00;0.00;;;;;;;;;;10519525;28;20040;-64
2021/09/11 09:12:49;;;;;;;0.00;0.00;;;;;;;;;;10519600;28;20048;-64
2021/09/11 09:17:54;;;;;;;0.00;0.00;;;;;;;;;;10516767;28;20186;-64
2021/09/11 09:23:16;;;;;;;0.00;0.00;;;;;;;;;;10516763;28;20398;-64
2021/09/11 09:28:24;;;;;;;;;;;;;;;;;;10520780;28;20131;-64
2021/09/11 09:33:30;;;;;;;0.00;0.00;;;;;;;;;;10501650;28;19920;-64
2021/09/11 09:38:34;;;;;;;0.00;0.00;;;;;;;;;;10505828;28;20048;-64
2021/09/11 09:43:40;;;;;;;0.00;0.00;;;;;;;;;;10515268;28;20042;-64
2021/09/11 09:48:45;;;;;;;0.00;0.00;;;;;;;;;;10518482;28;20101;-64
2021/09/11 09:53:49;;;;;;;0.00;0.00;;;;;;;;;;10513792;28;20036;-64
2021/09/11 09:58:52;;;;;;;0.00;0.00;;;;;;;;;;10518281;28;20426;-64
2021/09/11 10:03:56;;;;;;;0.00;0.00;;;;;;;;;;10516427;28;20443;-64
2021/09/11 10:09:04;;;;;;;0.00;0.00;;;;;;;;;;10515831;28;20117;-64
2021/09/11 10:14:11;;;;;;;0.00;0.00;;;;;;;;;;10503035;28;20524;-64
2021/09/11 10:19:19;;;;;;;0.00;0.00;;;;;;;;;;10501697;28;20071;-64
2021/09/11 10:24:33;;;;;;;0.00;0.00;;;;;;;;;;10513571;28;20044;-64
2021/09/11 10:29:52;;;;;;;0.00;0.00;;;;;;;;;;10497651;28;20048;-64
2021/09/11 10:35:00;;;;;;;0.00;0.00;;;;;;;;;;10516996;28;20044;-64
2021/09/11 10:40:14;;;;;;;0.00;0.00;;;;;;;;;;10500485;28;20055;-64
2021/09/11 10:45:37;;;;;;;0.00;0.00;;;;;;;;;;10498459;28;20577;-64
2021/09/11 10:50:41;;;;;;;0.00;0.00;;;;;;;;;;10514163;28;20043;-64
2021/09/11 10:55:44;;;;;;;0.00;0.00;;;;;;;;;;10514980;28;20059;-64
2021/09/11 11:00:55;;;;;;;0.00;0.00;;;;;;;;;;10513862;28;20142;-64
2021/09/11 11:06:01;;;;;;;0.00;0.00;;;;;;;;;;10496490;28;20044;-64
2021/09/11 11:11:05;;;;;;;0.00;0.00;;;;;;;;;;10515091;28;20040;-64
2021/09/11 11:16:08;;;;;;;0.00;0.00;;;;;;;;;;10510251;28;20088;-64
2021/09/11 11:21:12;;;;;;;0.00;0.00;;;;;;;;;;10515572;28;20527;-64
2021/09/11 11:26:18;;;;;;;0.00;0.00;;;;;;;;;;10515342;28;20764;-64
2021/09/11 11:31:21;;;;;;;0.00;0.00;;;;;;;;;;10498866;28;20048;-64
2021/09/11 11:36:25;;;;;;;0.00;0.00;;;;;;;;;;10514875;28;20113;-64
2021/09/11 11:41:30;;;;;;;0.00;0.00;;;;;;;;;;10499745;28;20063;-64
2021/09/11 11:46:35;;;;;;;0.00;0.00;;;;;;;;;;10525517;28;20133;-64
2021/09/11 11:51:40;;;;;;;0.00;0.00;;;;;;;;;;10514718;28;20052;-64
2021/09/11 11:56:46;;;;;;;0.00;0.00;;;;;;;;;;10513691;28;20835;-64
2021/09/11 12:01:50;;;;;;;0.00;0.00;;;;;;;;;;10509256;28;20515;-65
2021/09/11 12:06:54;;;;;;;0.17;0.00;;;;;;;;;;10511954;28;20071;-64
2021/09/11 12:12:02;;;;;;;0.00;0.00;;;;;;;;;;10499061;28;20056;-67
2021/09/11 12:17:13;;;;;;;0.00;0.00;;;;;;;;;;10494037;28;20048;-67
2021/09/11 12:22:18;;;;;;;0.00;0.00;;;;;;;;;;10511182;28;20051;-68
2021/09/11 12:27:27;;;;;;;0.00;0.00;;;;;;;;;;10509920;28;20081;-67
2021/09/11 12:32:30;;;;;;;0.00;0.00;;;;;;;;;;10491226;28;20046;-66
2021/09/11 12:37:48;;;;;;;0.00;0.00;;;;;;;;;;10512098;28;20533;-67
2021/09/11 12:42:53;;;;;;;0.00;0.00;;;;;;;;;;10512276;28;20058;-66
2021/09/11 12:47:56;;;;;;;0.00;0.00;;;;;;;;;;10512715;28;20058;-66
2021/09/11 12:52:59;;;;;;;0.00;0.00;;;;;;;;;;10515614;28;20131;-66
2021/09/11 12:58:03;;;;;;;0.00;0.00;;;;;;;;;;10514391;28;20112;-66
2021/09/11 13:03:06;;;;;;;0.00;0.00;;;;;;;;;;10511442;28;20040;-67
2021/09/11 13:08:09;;;;;;;0.00;0.00;;;;;;;;;;10510891;28;20397;-66
2021/09/11 13:13:15;;;;;;;0.00;0.00;;;;;;;;;;10511340;28;20410;-66
2021/09/11 13:18:18;;;;;;;0.00;0.00;;;;;;;;;;10511715;28;20055;-66
2021/09/11 13:23:21;;;;;;;0.00;0.00;;;;;;;;;;10497283;28;20052;-66
2021/09/11 13:28:25;;;;;;;0.00;0.00;;;;;;;;;;10511340;28;20052;-66
2021/09/11 13:33:28;;;;;;;0.00;0.00;;;;;;;;;;10495930;28;20050;-66
2021/09/11 13:38:32;;;;;;;0.00;0.00;;;;;;;;;;10512727;28;20558;-65
2021/09/11 13:43:37;;;;;;;0.00;0.00;;;;;;;;;;10518068;28;20039;-65
2021/09/11 13:48:40;;;;;;;0.00;0.00;;;;;;;;;;10501361;28;20080;-66
2021/09/11 13:53:43;;;;;;;0.00;0.00;;;;;;;;;;10517854;28;20105;-66
2021/09/11 13:58:47;;;;;;;0.00;0.00;;;;;;;;;;10518516;28;20105;-66
2021/09/11 14:03:51;;;;;;;0.00;0.00;;;;;;;;;;10517909;28;20132;-66
2021/09/11 14:08:54;;;;;;;0.00;0.00;;;;;;;;;;10515491;28;20059;-66
2021/09/11 14:14:00;;;;;;;0.00;0.00;;;;;;;;;;10516784;28;20036;-66
2021/09/11 14:19:03;;;;;;;0.00;0.00;;;;;;;;;;10514600;28;20101;-66
2021/09/11 14:24:06;;;;;;;0.00;0.00;;;;;;;;;;10517225;28;20040;-66
2021/09/11 14:29:11;;;;;;;0.00;0.00;;;;;;;;;;10517312;28;20044;-66
2021/09/11 14:34:14;;;;;;;0.00;0.00;;;;;;;;;;10500784;28;20410;-65
2021/09/11 14:39:24;;;;;;;0.00;0.00;;;;;;;;;;10498992;28;20048;-65
2021/09/11 14:44:33;;;;;;;0.00;0.00;;;;;;;;;;10518252;28;20055;-66
2021/09/11 14:49:36;;;;;;;0.00;0.00;;;;;;;;;;10523370;28;20516;-66
2021/09/11 14:54:39;;;;;;;0.00;0.00;;;;;;;;;;10515468;28;20040;-66
2021/09/11 14:59:43;;;;;;;0.00;0.00;;;;;;;;;;10504033;28;20059;-66
2021/09/11 15:04:45;;;;;;;0.00;0.00;;;;;;;;;;10515056;28;20040;-65
2021/09/11 15:09:48;;;;;;;0.00;0.00;;;;;;;;;;10515364;28;20461;-65
2021/09/11 15:14:52;;;;;;;0.00;0.00;;;;;;;;;;10512821;28;20047;-65
2021/09/11 15:19:55;;;;;;;0.00;0.00;;;;;;;;;;10514522;28;20129;-66
2021/09/11 15:24:58;;;;;;;0.00;0.00;;;;;;;;;;10514620;28;20044;-66
2021/09/11 15:30:02;;;;;;;0.00;0.00;;;;;;;;;;10513807;28;20046;-66
2021/09/11 15:35:06;;;;;;;0.00;0.00;;;;;;;;;;10510132;28;20044;-66
2021/09/11 15:40:10;;;;;;;0.00;0.00;;;;;;;;;;10497678;28;20627;-66
2021/09/11 15:45:14;;;;;;;0.00;0.00;;;;;;;;;;10511109;28;20040;-66
2021/09/11 15:50:18;;;;;;;0.00;0.00;;;;;;;;;;10513923;28;20048;-66
2021/09/11 15:55:21;;;;;;;0.00;0.00;;;;;;;;;;10512219;28;20063;-66
2021/09/11 16:00:26;;;;;;;0.10;0.00;;;;;;;;;;10511963;28;20446;-66
2021/09/11 16:05:30;;;;;;;0.00;0.00;;;;;;;;;;10513033;28;20054;-66
2021/09/11 16:10:33;;;;;;;0.00;0.00;;;;;;;;;;10494515;28;20051;-66
2021/09/11 16:15:37;;;;;;;0.08;0.00;;;;;;;;;;10514114;28;20905;-66
2021/09/11 16:20:43;;;;;;;0.00;0.00;;;;;;;;;;10512115;28;20115;-66
2021/09/11 16:25:46;;;;;;;0.00;0.00;;;;;;;;;;10513166;28;20032;-66
2021/09/11 16:30:50;;;;;;;0.00;0.00;;;;;;;;;;10516074;28;20400;-65
2021/09/11 16:35:53;;;;;;;0.00;0.00;;;;;;;;;;10511048;28;20055;-66
2021/09/11 16:40:57;;;;;;;0.00;0.00;;;;;;;;;;10517925;28;20140;-66
2021/09/11 16:46:01;;;;;;;0.00;0.00;;;;;;;;;;10512641;28;20038;-67
2021/09/11 16:51:04;;;;;;;0.00;0.00;;;;;;;;;;10509036;28;20043;-67
2021/09/11 16:56:07;;;;;;;0.00;0.00;;;;;;;;;;10514686;28;20431;-66
2021/09/11 17:01:11;;;;;;;0.00;0.00;;;;;;;;;;10512384;28;20123;-66
2021/09/11 17:06:14;;;;;;;0.00;0.00;;;;;;;;;;10508924;28;20044;-66
2021/09/11 17:11:17;;;;;;;0.00;0.00;;;;;;;;;;10513688;28;20070;-66
2021/09/11 17:16:21;;;;;;;0.00;0.00;;;;;;;;;;10519885;28;20043;-67
2021/09/11 17:21:24;;;;;;;0.00;0.00;;;;;;;;;;10500933;28;20052;-66
2021/09/11 17:26:27;;;;;;;0.00;0.00;;;;;;;;;;10534434;28;20060;-65
2021/09/11 17:31:31;;;;;;;0.00;0.00;;;;;;;;;;10503913;28;20047;-65
2021/09/11 17:36:34;;;;;;;0.00;0.00;;;;;;;;;;10502345;28;20413;-65
2021/09/11 17:41:37;;;;;;;0.00;0.00;;;;;;;;;;10517429;28;20063;-64
2021/09/11 17:46:41;;;;;;;0.00;0.00;;;;;;;;;;10517913;28;20044;-65
2021/09/11 17:51:46;;;;;;;0.00;0.00;;;;;;;;;;10500850;28;20052;-68
2021/09/11 17:56:49;;;;;;;0.00;0.00;;;;;;;;;;10514981;28;20085;-67
2021/09/11 18:01:54;;;;;;;0.00;0.00;;;;;;;;;;10519130;28;20048;-67
2021/09/11 18:06:58;;;;;;;0.00;0.00;;;;;;;;;;10517246;28;20047;-65
2021/09/11 18:12:01;;;;;;;0.00;0.00;;;;;;;;;;10515600;28;20125;-65
2021/09/11 18:17:06;;;;;;;0.00;0.00;;;;;;;;;;10516841;28;20039;-65
2021/09/11 18:22:09;;;;;;;0.00;0.00;;;;;;;;;;10529882;28;20495;-67
2021/09/11 18:27:13;;;;;;;0.00;0.00;;;;;;;;;;10512043;28;20757;-67
2021/09/11 18:32:20;;;;;;;0.00;0.00;;;;;;;;;;10517963;28;20047;-67
2021/09/11 18:37:23;;;;;;;0.00;0.00;;;;;;;;;;10526182;28;20043;-66
2021/09/11 18:42:26;;;;;;;0.00;0.00;;;;;;;;;;10515508;28;20071;-66
2021/09/11 18:47:31;;;;;;;0.00;0.00;;;;;;;;;;10516761;28;20695;-66
2021/09/11 18:52:34;;;;;;;0.00;0.00;;;;;;;;;;10506911;28;20834;-66
2021/09/11 18:57:37;;;;;;;0.00;0.00;;;;;;;;;;10519781;28;20042;-66
2021/09/11 19:02:41;;;;;;;0.00;0.00;;;;;;;;;;10518573;28;20060;-66
2021/09/11 19:07:45;;;;;;;0.00;0.00;;;;;;;;;;10514803;28;20044;-66
2021/09/11 19:12:50;;;;;;;0.00;0.00;;;;;;;;;;10516072;28;20047;-66
2021/09/11 19:17:57;;;;;;;0.00;0.00;;;;;;;;;;10517624;28;20085;-65
2021/09/11 19:23:01;;;;;;;0.00;0.00;;;;;;;;;;10516795;28;20043;-65
2021/09/11 19:28:04;;;;;;;0.00;0.00;;;;;;;;;;10514998;28;20055;-65
2021/09/11 19:33:08;;;;;;;0.00;0.00;;;;;;;;;;10499957;28;20044;-66
2021/09/11 19:38:10;;;;;;;0.00;0.00;;;;;;;;;;10517406;28;20063;-65
2021/09/11 19:43:13;;;;;;;0.00;0.00;;;;;;;;;;10513434;28;20059;-66
2021/09/11 19:48:17;;;;;;;0.00;0.00;;;;;;;;;;10514661;28;20040;-66
2021/09/11 19:53:20;;;;;;;0.00;0.00;;;;;;;;;;10513380;28;20044;-66
2021/09/11 19:58:24;;;;;;;0.00;0.00;;;;;;;;;;10515240;28;20037;-66
2021/09/11 20:03:28;;;;;;;0.00;0.00;;;;;;;;;;10513620;28;20056;-66
2021/09/11 20:08:31;;;;;;;0.00;0.00;;;;;;;;;;10514759;28;20910;-66
2021/09/11 20:13:35;;;;;;;0.00;0.00;;;;;;;;;;10514200;28;20600;-66
2021/09/11 20:18:39;;;;;;;0.00;0.00;;;;;;;;;;10514697;28;20032;-66
2021/09/11 20:23:43;;;;;;;0.00;0.00;;;;;;;;;;10496280;28;20043;-67
2021/09/11 20:28:46;;;;;;;0.10;0.00;;;;;;;;;;10513518;28;20123;-67
2021/09/11 20:33:51;;;;;;;0.00;0.00;;;;;;;;;;10517586;28;20124;-66
2021/09/11 20:38:53;;;;;;;0.00;0.00;;;;;;;;;;10511889;28;20488;-66
2021/09/11 20:43:56;;;;;;;0.00;0.00;;;;;;;;;;10517652;28;20052;-66
2021/09/11 20:49:00;;;;;;;0.00;0.00;;;;;;;;;;10527128;28;20087;-66
2021/09/11 20:54:03;;;;;;;0.00;0.00;;;;;;;;;;10472413;28;20094;-66
2021/09/11 20:59:11;;;;;;;0.00;0.00;;;;;;;;;;10488947;28;20032;-66
2021/09/11 21:04:15;;;;;;;0.00;0.00;;;;;;;;;;10483224;28;20044;-66
2021/09/11 21:09:18;;;;;;;0.00;0.00;;;;;;;;;;10478677;28;20391;-66
2021/09/11 21:14:21;;;;;;;0.00;0.00;;;;;;;;;;10493917;28;20051;-66
2021/09/11 21:19:25;;;;;;;0.00;0.00;;;;;;;;;;10485221;28;20127;-66
2021/09/11 21:24:28;;;;;;;0.00;0.00;;;;;;;;;;10489453;28;20048;-66
2021/09/11 21:29:31;;;;;;;0.00;0.00;;;;;;;;;;10483845;28;20037;-66
2021/09/11 21:34:36;;;;;;;0.00;0.00;;;;;;;;;;10490452;28;20136;-65
2021/09/11 21:39:39;;;;;;;0.00;0.00;;;;;;;;;;10487254;28;20059;-65
2021/09/11 21:44:43;;;;;;;0.00;0.00;;;;;;;;;;10481124;28;20048;-66
2021/09/11 21:49:47;;;;;;;0.00;0.00;;;;;;;;;;10486643;28;20056;-66
2021/09/11 21:54:50;;;;;;;0.00;0.00;;;;;;;;;;10484597;28;20127;-65
2021/09/11 21:59:53;;;;;;;0.00;0.00;;;;;;;;;;10478518;28;20052;-66
2021/09/11 22:04:57;;;;;;;0.00;0.00;;;;;;;;;;10476245;28;20054;-65
2021/09/11 22:10:00;;;;;;;0.00;0.00;;;;;;;;;;10477603;28;20543;-65
2021/09/11 22:15:03;;;;;;;0.00;0.00;;;;;;;;;;10473771;28;20123;-66
2021/09/11 22:20:08;;;;;;;0.00;0.00;;;;;;;;;;10478115;28;20098;-66
2021/09/11 22:25:11;;;;;;;0.00;0.00;;;;;;;;;;10489724;28;20045;-66
2021/09/11 22:30:15;;;;;;;0.00;0.00;;;;;;;;;;10482501;28;20043;-65
2021/09/11 22:35:19;;;;;;;0.00;0.00;;;;;;;;;;10472750;28;20174;-65
2021/09/11 22:40:26;;;;;;;0.00;0.00;;;;;;;;;;10475291;28;20874;-65
2021/09/11 22:45:29;;;;;;;0.00;0.00;;;;;;;;;;10473410;28;20050;-65
2021/09/11 22:50:33;;;;;;;0.00;0.00;;;;;;;;;;10471745;28;20852;-65
2021/09/11 22:55:36;;;;;;;0.00;0.00;;;;;;;;;;10477828;28;20043;-65
2021/09/11 23:00:39;;;;;;;0.10;0.08;;;;;;;;;;10477057;28;20052;-66
2021/09/11 23:05:44;;;;;;;0.00;0.00;;;;;;;;;;10474891;28;20131;-65
2021/09/11 23:10:47;;;;;;;0.00;0.00;;;;;;;;;;10476640;28;20043;-66
2021/09/11 23:15:49;;;;;;;0.00;0.00;;;;;;;;;;10464018;28;20064;-65
2021/09/11 23:20:54;;;;;;;0.00;0.00;;;;;;;;;;10476642;28;20690;-65
2021/09/11 23:25:57;;;;;;;0.00;0.00;;;;;;;;;;10462779;28;20048;-65
2021/09/11 23:30:59;;;;;;;0.00;0.00;;;;;;;;;;10478436;28;20819;-65
2021/09/11 23:36:04;;;;;;;0.00;0.00;;;;;;;;;;10481172;28;20048;-66
2021/09/11 23:41:07;;;;;;;0.50;0.30;;;;;;;;;;10473705;28;20052;-65
2021/09/11 23:46:10;;;;;;;0.20;0.17;;;;;;;;;;10472962;28;20782;-65
2021/09/11 23:51:14;;;;;;;1.20;0.65;;;;;;;;;;10464941;28;20052;-67
2021/09/11 23:56:17;;;;;;;0.98;0.47;;;;;;;;;;10468932;28;20132;-66
